Time;durP1;ratioP1;P1;durP2;ratioP2;P2;SDS_P1;SDS_P2;PMS_P1;PMS_P2;Temp;Humidity;BMP_temperature;BMP_pressure;BME280_temperature;BME280_humidity;BME280_pressure;Samples;Min_cycle;Max_cycle;Signal;HPM_P1;HPM_P2
2022/07/11 00:00:14;;;;;;;1.58;0.85;;;13.50;99.90;;;;;;10355707;28;20201;-78
2022/07/11 00:05:35;;;;;;;4.45;2.92;;;13.50;99.90;;;;;;10355668;28;20199;-78
2022/07/11 00:10:56;;;;;;;2.67;1.70;;;13.50;99.90;;;;;;10393034;28;20202;-77
2022/07/11 00:16:18;;;;;;;4.88;1.75;;;13.50;99.90;;;;;;10396251;28;20263;-77
2022/07/11 00:21:40;;;;;;;4.78;2.00;;;13.50;99.90;;;;;;10347548;28;20191;-77
2022/07/11 00:27:01;;;;;;;5.57;1.30;;;13.40;99.90;;;;;;10355494;28;20195;-77
2022/07/11 00:32:23;;;;;;;2.60;1.38;;;13.40;99.90;;;;;;10340550;28;20265;-76
2022/07/11 00:37:44;;;;;;;4.22;1.45;;;13.40;99.90;;;;;;10355112;28;20222;-76
2022/07/11 00:43:06;;;;;;;2.70;1.25;;;13.30;99.90;;;;;;10353811;28;20198;-76
2022/07/11 00:48:28;;;;;;;2.67;1.20;;;13.40;99.90;;;;;;10344997;28;20314;-76
2022/07/11 00:53:52;;;;;;;1.48;0.98;;;13.40;99.90;;;;;;10317251;28;20246;-75
2022/07/11 00:59:16;;;;;;;1.45;1.25;;;13.40;99.90;;;;;;10355459;28;20209;-76
2022/07/11 01:04:38;;;;;;;3.22;1.30;;;13.30;99.90;;;;;;10365899;28;20187;-77
2022/07/11 01:09:59;;;;;;;2.17;1.00;;;13.30;99.90;;;;;;10392131;28;20194;-78
2022/07/11 01:15:21;;;;;;;2.88;1.38;;;13.20;99.90;;;;;;10403338;28;20261;-78
2022/07/11 01:20:42;;;;;;;2.25;1.17;;;13.20;99.90;;;;;;10347962;28;20193;-76
2022/07/11 01:26:03;;;;;;;2.05;0.95;;;13.10;99.90;;;;;;10325880;28;20198;-77
2022/07/11 01:31:26;;;;;;;1.80;0.80;;;13.20;99.90;;;;;;10327545;28;20192;-77
2022/07/11 01:36:48;;;;;;;2.75;1.10;;;13.20;99.90;;;;;;10320538;28;20252;-77
2022/07/11 01:42:09;;;;;;;3.60;1.08;;;13.30;99.90;;;;;;10320056;28;20455;-76
2022/07/11 01:47:30;;;;;;;3.17;1.10;;;13.20;99.90;;;;;;10321445;28;20303;-76
2022/07/11 02:05:08;;;;;;;2.50;1.08;;;13.40;99.90;;;;;;10358688;28;20660;-78
2022/07/11 02:10:29;;;;;;;2.67;1.10;;;13.30;99.90;;;;;;10392878;28;20202;-77
2022/07/11 02:15:53;;;;;;;2.08;1.35;;;13.40;99.90;;;;;;10385466;28;20225;-78
2022/07/11 02:21:14;;;;;;;2.03;1.10;;;13.30;99.90;;;;;;10329321;28;20196;-77
2022/07/11 02:26:35;;;;;;;2.42;0.82;;;13.40;99.90;;;;;;10318670;28;20203;-77
2022/07/11 02:31:59;;;;;;;2.05;0.85;;;13.30;99.90;;;;;;10320744;28;20500;-77
2022/07/11 02:37:20;;;;;;;1.55;0.57;;;13.30;99.90;;;;;;10317866;28;20235;-78
2022/07/11 02:42:41;;;;;;;1.27;0.85;;;13.20;99.90;;;;;;10318799;28;20194;-78
2022/07/11 02:48:03;;;;;;;3.05;0.93;;;13.30;99.90;;;;;;10333662;28;20227;-78
2022/07/11 02:53:24;;;;;;;2.83;1.80;;;13.20;99.90;;;;;;10317552;28;20200;-77
2022/07/11 02:58:45;;;;;;;1.50;1.10;;;13.20;99.90;;;;;;10355476;28;20221;-77
2022/07/11 03:04:06;;;;;;;1.70;0.80;;;13.20;99.90;;;;;;10358305;28;20181;-78
2022/07/11 03:09:27;;;;;;;2.72;1.33;;;13.20;99.90;;;;;;10382165;28;20271;-78
2022/07/11 03:14:49;;;;;;;3.20;0.98;;;13.20;99.90;;;;;;10398147;28;20415;-78
2022/07/11 03:20:11;;;;;;;2.72;1.00;;;13.30;99.90;;;;;;10356950;28;20206;-78
2022/07/11 03:25:32;;;;;;;1.77;0.90;;;13.40;99.90;;;;;;10356750;28;20270;-76
2022/07/11 03:30:53;;;;;;;1.90;0.88;;;13.40;99.90;;;;;;10358567;28;20227;-76
2022/07/11 03:36:14;;;;;;;1.98;0.80;;;13.50;99.90;;;;;;10355766;28;20232;-77
2022/07/11 03:41:35;;;;;;;2.03;1.00;;;13.50;99.90;;;;;;10356541;28;20192;-76
2022/07/11 03:46:56;;;;;;;2.75;1.10;;;13.50;99.90;;;;;;10356311;28;20243;-77
2022/07/11 03:52:18;;;;;;;2.50;1.33;;;13.50;99.90;;;;;;10316439;28;20190;-78
2022/07/11 03:57:40;;;;;;;2.05;1.10;;;13.50;99.90;;;;;;10345325;28;20455;-78
2022/07/11 04:03:01;;;;;;;2.90;1.20;;;13.50;99.90;;;;;;10328380;28;20220;-78
2022/07/11 04:08:23;;;;;;;2.63;1.10;;;13.50;99.90;;;;;;10347930;28;20249;-78
2022/07/11 04:13:44;;;;;;;2.03;1.10;;;13.50;99.90;;;;;;10395981;28;20237;-79
2022/07/11 04:19:06;;;;;;;2.63;1.50;;;13.60;99.90;;;;;;10324632;28;20205;-78
2022/07/11 04:24:27;;;;;;;2.90;1.60;;;13.60;99.90;;;;;;10316169;28;20218;-78
2022/07/11 04:29:49;;;;;;;9.10;3.92;;;13.50;99.90;;;;;;10314224;28;20359;-78
2022/07/11 04:35:11;;;;;;;2.45;1.70;;;13.50;99.90;;;;;;10316153;28;20230;-78
2022/07/11 04:40:32;;;;;;;1.25;1.10;;;13.60;99.90;;;;;;10314386;28;20476;-78
2022/07/11 04:45:53;;;;;;;2.00;1.27;;;13.70;99.90;;;;;;10322290;28;20204;-78
2022/07/11 04:51:18;;;;;;;1.85;1.30;;;13.90;99.90;;;;;;10334383;28;20281;-79
2022/07/11 04:56:40;;;;;;;2.15;1.48;;;14.00;99.90;;;;;;10334979;28;20228;-79
2022/07/11 05:02:01;;;;;;;1.50;1.10;;;14.10;99.90;;;;;;10353020;28;20206;-79
2022/07/11 05:07:22;;;;;;;1.08;0.98;;;14.00;99.90;;;;;;10361055;28;20200;-78
2022/07/11 05:12:44;;;;;;;0.70;0.70;;;14.00;99.90;;;;;;10408236;28;20378;-78
2022/07/11 05:18:06;;;;;;;1.55;0.80;;;13.90;99.90;;;;;;10330332;28;20225;-76
2022/07/11 05:23:27;;;;;;;0.70;0.70;;;13.70;99.90;;;;;;10313622;28;20197;-78
2022/07/11 05:28:48;;;;;;;3.05;0.70;;;13.70;99.90;;;;;;10326257;28;20197;-78
2022/07/11 05:34:10;;;;;;;1.05;0.60;;;13.70;99.90;;;;;;10315740;28;20227;-77
2022/07/11 05:39:32;;;;;;;0.82;0.63;;;13.80;99.90;;;;;;10323226;28;20194;-78
2022/07/11 05:44:53;;;;;;;1.63;0.88;;;13.90;99.90;;;;;;10327512;28;20194;-78
2022/07/11 05:50:15;;;;;;;1.17;1.00;;;13.90;99.90;;;;;;10364140;28;20242;-77
2022/07/11 05:55:37;;;;;;;1.45;1.10;;;13.90;99.90;;;;;;10363699;28;20557;-78
2022/07/11 06:00:59;;;;;;;1.50;1.23;;;14.10;99.90;;;;;;10361410;28;20212;-78
2022/07/11 06:06:20;;;;;;;2.35;1.60;;;14.10;99.90;;;;;;10362831;28;20200;-77
2022/07/11 06:11:42;;;;;;;3.35;0.90;;;14.20;99.90;;;;;;10323630;28;20226;-78
2022/07/11 06:17:03;;;;;;;2.33;1.10;;;14.30;99.90;;;;;;10321892;28;20415;-77
2022/07/11 06:22:25;;;;;;;1.88;0.88;;;14.20;99.90;;;;;;10319412;28;20199;-76
2022/07/11 06:27:46;;;;;;;0.98;0.70;;;14.30;99.90;;;;;;10304722;28;20285;-77
2022/07/11 06:33:12;;;;;;;1.15;0.70;;;14.20;99.90;;;;;;10319361;28;20191;-76
2022/07/11 06:38:34;;;;;;;0.98;0.90;;;14.00;99.90;;;;;;10333686;28;20220;-78
2022/07/11 06:43:58;;;;;;;2.97;0.90;;;14.00;99.90;;;;;;10358995;28;20252;-78
2022/07/11 06:49:20;;;;;;;3.45;1.00;;;14.00;99.90;;;;;;10358570;28;20228;-78
2022/07/11 06:54:41;;;;;;;6.82;1.17;;;13.90;99.90;;;;;;10356762;28;20214;-78
2022/07/11 07:00:03;;;;;;;2.97;1.00;;;14.00;99.90;;;;;;10365797;28;20287;-77
2022/07/11 07:05:25;;;;;;;4.22;1.73;;;14.00;99.90;;;;;;10357972;28;20376;-77
2022/07/11 07:10:47;;;;;;;1.75;0.90;;;14.20;99.90;;;;;;10327243;28;20225;-76
2022/07/11 07:16:08;;;;;;;4.63;0.80;;;15.00;99.90;;;;;;10317845;28;20224;-76
2022/07/11 07:21:30;;;;;;;1.08;0.65;;;16.10;99.90;;;;;;10317099;28;20235;-77
2022/07/11 07:26:51;;;;;;;1.85;1.17;;;16.80;98.70;;;;;;11542892;23;20313;-81
2022/07/11 07:32:13;;;;;;;1.27;0.70;;;17.00;93.20;;;;;;10346526;28;20209;-78
2022/07/11 07:37:35;;;;;;;1.95;0.80;;;16.90;99.90;;;;;;10352829;28;20241;-78
2022/07/11 07:42:56;;;;;;;2.25;0.80;;;17.00;94.60;;;;;;10346086;28;20241;-80
2022/07/11 07:48:18;;;;;;;1.23;0.80;;;17.10;99.90;;;;;;10375397;28;20284;-78
2022/07/11 07:53:39;;;;;;;1.10;0.88;;;17.50;85.20;;;;;;10357929;28;20198;-78
2022/07/11 07:59:01;;;;;;;1.35;0.80;;;17.90;32.90;;;;;;10311321;28;20201;-79
2022/07/11 08:04:22;;;;;;;3.03;0.90;;;18.30;99.90;;;;;;10333781;28;20264;-87
2022/07/11 08:09:44;;;;;;;0.75;0.60;;;18.60;1.00;;;;;;10354995;28;20285;-80
2022/07/11 08:15:06;;;;;;;1.15;0.50;;;18.90;99.90;;;;;;10351646;28;20305;-80
2022/07/11 08:20:28;;;;;;;1.85;1.30;;;19.50;99.90;;;;;;10335431;28;20312;-82
2022/07/11 08:25:50;;;;;;;0.93;0.77;;;19.60;99.90;;;;;;10345114;28;20281;-80
2022/07/11 08:31:12;;;;;;;1.23;0.68;;;18.90;1.00;;;;;;10316175;28;20281;-79
2022/07/11 08:36:34;;;;;;;1.35;0.98;;;18.40;1.00;;;;;;10330195;28;20233;-79
2022/07/11 08:41:57;;;;;;;0.90;0.80;;;18.10;1.00;;;;;;10349240;28;20260;-79
2022/07/11 08:47:19;;;;;;;3.88;1.10;;;17.80;1.00;;;;;;10355515;28;20522;-78
2022/07/11 08:52:41;;;;;;;1.10;1.00;;;17.80;1.00;;;;;;10357110;28;20550;-85
2022/07/11 08:58:03;;;;;;;3.67;2.38;;;17.80;1.00;;;;;;10323691;28;20239;-83
2022/07/11 09:03:24;;;;;;;3.03;1.65;;;18.70;1.00;;;;;;10359735;28;20487;-79
2022/07/11 09:08:46;;;;;;;0.80;0.57;;;20.40;1.00;;;;;;10362709;28;20201;-78
2022/07/11 09:14:23;;;;;;;7.63;4.95;;;20.40;1.00;;;;;;10349872;28;20209;-79
2022/07/11 09:19:48;;;;;;;2.00;0.73;;;19.40;1.00;;;;;;10326802;28;20212;-77
2022/07/11 09:25:19;;;;;;;0.68;0.60;;;18.70;1.00;;;;;;10382036;28;20253;-77
2022/07/11 09:30:43;;;;;;;2.58;0.63;;;18.90;99.90;;;;;;10342959;28;20268;-79
2022/07/11 09:36:04;;;;;;;1.05;0.60;;;19.50;99.90;;;;;;10366811;28;20426;-81
2022/07/11 09:41:26;;;;;;;5.10;0.40;;;20.00;1.00;;;;;;10341520;28;20582;-81
2022/07/11 09:46:51;;;;;;;0.77;0.70;;;20.20;1.00;;;;;;10313045;28;20550;-80
2022/07/11 09:52:17;;;;;;;1.13;0.70;;;20.90;1.00;;;;;;10351017;28;20209;-88
2022/07/11 09:57:39;;;;;;;0.95;0.73;;;21.30;99.90;;;;;;10351834;28;20288;-79
2022/07/11 10:03:04;;;;;;;2.13;0.45;;;20.90;99.90;;;;;;10354525;28;20202;-79
2022/07/11 10:08:26;;;;;;;1.55;0.80;;;19.70;99.90;;;;;;10355190;28;20201;-81
2022/07/11 10:13:48;;;;;;;3.47;0.90;;;18.60;1.00;;;;;;10324246;28;20216;-78
2022/07/11 10:19:16;;;;;;;1.23;0.63;;;17.90;1.00;;;;;;10329649;28;20229;-78
2022/07/11 10:25:13;;;;;;;1.10;1.00;;;17.70;1.00;;;;;;10360994;28;20208;-79
2022/07/11 10:30:40;;;;;;;0.88;0.60;;;18.70;1.00;;;;;;10331613;28;20209;-78
2022/07/11 10:36:02;;;;;;;1.20;0.60;;;21.40;26.10;;;;;;10312976;28;20245;-78
2022/07/11 10:41:25;;;;;;;3.92;0.85;;;21.30;29.70;;;;;;10348252;28;20285;-82
2022/07/11 10:46:48;;;;;;;3.40;1.25;;;22.10;99.90;;;;;;10367201;28;20241;-81
2022/07/11 10:52:09;;;;;;;1.98;0.60;;;22.10;99.90;;;;;;10337199;28;20538;-82
2022/07/11 10:58:19;;;;;;;0.90;0.50;;;22.00;98.20;;;;;;10370229;28;20252;-82
2022/07/11 11:03:42;;;;;;;0.73;0.73;;;22.60;97.20;;;;;;10329511;28;20395;-81
2022/07/11 11:09:53;;;;;;;1.48;0.75;;;21.60;97.00;;;;;;10343327;28;20202;-82
2022/07/11 11:15:33;;;;;;;3.72;3.00;;;20.50;99.50;;;;;;10309766;28;20816;-81
2022/07/11 11:21:00;;;;;;;2.50;1.90;;;20.00;99.90;;;;;;10337703;28;20199;-81
2022/07/11 11:26:21;;;;;;;3.33;1.35;;;20.10;99.90;;;;;;10389073;28;20236;-82
2022/07/11 11:31:49;;;;;;;0.88;0.70;;;21.20;99.90;;;;;;10348540;28;20519;-83
2022/07/11 11:37:11;;;;;;;2.05;0.60;;;22.50;98.00;;;;;;10349281;28;20225;-83
2022/07/11 11:42:32;;;;;;;0.30;0.30;;;23.00;92.90;;;;;;10350717;28;20296;-81
2022/07/11 11:47:54;;;;;;;1.48;0.57;;;22.30;92.00;;;;;;10336599;28;20233;-81
2022/07/11 11:53:16;;;;;;;6.72;3.05;;;21.30;97.10;;;;;;10311673;28;20269;-83
2022/07/11 11:58:37;;;;;;;1.60;1.17;;;19.90;99.90;;;;;;10337599;28;20273;-86
2022/07/11 12:04:02;;;;;;;2.00;1.70;;;;;;;;;;10320393;28;20229;-86
2022/07/11 12:15:06;;;;;;;1.02;0.50;;;20.60;99.90;;;;;;10328496;28;20297;-81
2022/07/11 12:20:42;;;;;;;3.83;0.70;;;20.80;95.20;;;;;;10317986;28;20488;-84
2022/07/11 12:26:04;;;;;;;1.05;0.40;;;21.10;96.10;;;;;;10340861;28;20241;-81
2022/07/11 12:31:25;;;;;;;1.05;0.50;;;21.70;96.30;;;;;;10290057;28;20249;-85
2022/07/11 12:36:47;;;;;;;1.15;0.45;;;22.40;94.70;;;;;;10345653;28;20559;-81
2022/07/11 12:42:30;;;;;;;13.05;6.53;;;22.80;90.00;;;;;;10365233;28;20205;-84
2022/07/11 12:47:53;;;;;;;0.85;0.70;;;22.80;84.50;;;;;;10321382;28;20205;-82
2022/07/11 12:53:16;;;;;;;0.38;0.38;;;23.00;82.40;;;;;;10313519;28;20244;-81
2022/07/11 12:58:39;;;;;;;5.43;2.92;;;23.20;81.00;;;;;;10304711;28;20226;-80
2022/07/11 13:04:00;;;;;;;3.92;2.75;;;23.10;77.20;;;;;;10332091;28;20555;-81
2022/07/11 13:09:22;;;;;;;2.75;1.23;;;22.00;86.50;;;;;;10310082;28;20253;-83
2022/07/11 13:20:28;;;;;;;16.63;9.15;;;20.60;1.00;;;;;;10347342;28;20241;-80
2022/07/11 13:25:50;;;;;;;1.90;1.23;;;21.20;1.00;;;;;;10360119;28;20244;-83
2022/07/11 13:31:12;;;;;;;1.88;0.90;;;21.10;1.00;;;;;;10347230;28;20206;-83
2022/07/11 13:36:35;;;;;;;1.40;0.82;;;20.80;1.00;;;;;;10358758;28;20428;-83
2022/07/11 13:41:57;;;;;;;5.50;1.85;;;21.10;1.00;;;;;;10349761;28;20244;-84
2022/07/11 13:47:18;;;;;;;1.48;0.60;;;21.10;1.00;;;;;;10361943;28;20194;-83
2022/07/11 13:52:40;;;;;;;1.40;0.70;;;21.20;1.00;;;;;;10334540;28;20206;-83
2022/07/11 13:58:02;;;;;;;3.83;0.93;;;21.40;1.00;;;;;;10355187;28;20229;-86
2022/07/11 14:03:23;;;;;;;0.98;0.65;;;21.10;1.00;;;;;;10367868;28;20197;-83
2022/07/11 14:08:45;;;;;;;1.10;0.80;;;20.60;47.10;;;;;;10360527;28;20220;-87
2022/07/11 14:14:06;;;;;;;2.38;0.70;;;20.30;1.00;;;;;;10379737;28;20200;-82
2022/07/11 14:19:28;;;;;;;1.98;0.82;;;20.00;1.00;;;;;;10358129;28;20300;-81
2022/07/11 14:24:50;;;;;;;1.95;1.27;;;19.70;1.00;;;;;;10367533;28;20232;-83
2022/07/11 14:30:12;;;;;;;2.72;1.35;;;19.70;1.00;;;;;;10346127;28;20300;-84
2022/07/11 14:35:33;;;;;;;1.70;1.42;;;19.70;1.00;;;;;;10368753;28;20217;-84
2022/07/11 14:40:55;;;;;;;1.30;0.70;;;19.40;1.00;;;;;;10365274;28;20231;-81
2022/07/11 14:46:16;;;;;;;0.40;0.40;;;19.40;1.00;;;;;;10362381;28;20504;-81
2022/07/11 14:51:39;;;;;;;3.22;0.50;;;19.30;1.00;;;;;;10362804;28;20201;-89
2022/07/11 14:57:15;;;;;;;1.65;0.68;;;19.50;99.90;;;;;;10361427;28;20232;-80
2022/07/11 15:13:58;;;;;;;3.03;0.50;;;19.40;99.90;;;;;;10333807;28;20501;-79
2022/07/11 15:19:19;;;;;;;1.38;0.50;;;19.60;1.00;;;;;;10317278;28;20476;-79
2022/07/11 15:24:41;;;;;;;0.82;0.50;;;19.80;1.00;;;;;;10366979;28;20193;-79
2022/07/11 15:30:04;;;;;;;6.50;0.68;;;19.90;1.00;;;;;;10351508;28;20288;-79
2022/07/11 15:35:25;;;;;;;0.52;0.40;;;19.50;1.00;;;;;;10353666;28;20276;-79
2022/07/11 15:40:47;;;;;;;3.05;0.60;;;19.20;1.00;;;;;;10353431;28;20212;-79
2022/07/11 15:46:08;;;;;;;1.23;0.63;;;19.10;1.00;;;;;;10355781;28;20211;-79
2022/07/11 15:51:30;;;;;;;0.98;0.70;;;19.10;1.00;;;;;;10325048;28;20489;-79
2022/07/11 15:56:51;;;;;;;2.95;1.67;;;19.20;1.00;;;;;;10380403;28;20224;-79
2022/07/11 16:02:13;;;;;;;2.40;1.60;;;19.10;1.00;;;;;;10358075;28;20374;-79
2022/07/11 16:07:36;;;;;;;1.73;0.98;;;;;;;;;;10351548;28;20248;-79
2022/07/11 16:12:59;;;;;;;1.38;0.80;;;;;;;;;;10338264;28;20198;-78
2022/07/11 16:18:20;;;;;;;3.63;1.00;;;;;;;;;;10349657;28;20305;-79
2022/07/11 16:23:42;;;;;;;0.77;0.45;;;;;;;;;;10353459;28;20208;-78
2022/07/11 16:29:04;;;;;;;2.65;1.17;;;19.60;1.00;;;;;;10353263;28;20283;-78
2022/07/11 16:34:25;;;;;;;5.25;1.98;;;18.50;1.00;;;;;;10326699;28;20268;-79
2022/07/11 16:45:30;;;;;;;1.50;0.93;;;18.00;21.60;;;;;;10312483;28;20282;-79
2022/07/11 16:50:54;;;;;;;2.80;1.10;;;17.60;20.80;;;;;;10337859;28;20200;-79
2022/07/11 16:56:16;;;;;;;0.93;0.85;;;17.50;30.00;;;;;;10374045;28;20224;-78
2022/07/11 17:01:37;;;;;;;2.88;2.10;;;17.30;88.00;;;;;;10348924;28;20211;-79
2022/07/11 17:06:59;;;;;;;16.80;9.35;;;17.30;99.90;;;;;;10313913;28;20281;-80
2022/07/11 17:12:21;;;;;;;10.68;6.40;;;17.40;92.60;;;;;;10349431;28;20220;-79
2022/07/11 17:17:43;;;;;;;5.28;3.00;;;17.40;99.90;;;;;;10353005;28;20233;-80
2022/07/11 17:23:04;;;;;;;2.78;2.00;;;17.40;99.90;;;;;;10338205;28;20271;-79
2022/07/11 17:28:27;;;;;;;4.28;2.53;;;17.30;99.90;;;;;;10351968;28;20294;-80
2022/07/11 17:33:49;;;;;;;3.72;2.85;;;17.30;99.90;;;;;;10303029;28;20214;-79
2022/07/11 17:39:10;;;;;;;3.22;2.13;;;17.30;99.90;;;;;;10330065;28;20220;-80
2022/07/11 17:44:33;;;;;;;2.17;1.60;;;17.20;97.00;;;;;;10376692;28;20200;-79
2022/07/11 17:49:54;;;;;;;1.95;1.17;;;17.30;34.70;;;;;;10344755;28;20193;-79
2022/07/11 17:55:20;;;;;;;2.65;1.60;;;17.30;6.40;;;;;;10359147;28;20207;-79
2022/07/11 18:00:44;;;;;;;2.67;1.83;;;17.20;1.90;;;;;;10379121;28;20200;-79
2022/07/11 18:06:06;;;;;;;2.58;1.70;;;17.20;1.00;;;;;;10332337;28;20204;-79
2022/07/11 18:11:27;;;;;;;1.75;1.60;;;17.10;1.00;;;;;;10343279;28;20519;-79
2022/07/11 18:16:48;;;;;;;3.22;1.60;;;17.10;1.00;;;;;;10358804;28;20237;-81
2022/07/11 18:22:10;;;;;;;2.65;1.25;;;17.00;1.00;;;;;;10340758;28;20297;-80
2022/07/11 18:27:32;;;;;;;1.05;1.00;;;16.90;1.00;;;;;;10344474;28;20233;-81
2022/07/11 18:32:53;;;;;;;1.70;1.30;;;16.70;1.00;;;;;;10331542;28;20207;-79
2022/07/11 18:38:14;;;;;;;1.20;1.10;;;16.60;1.00;;;;;;10318375;28;20408;-79
2022/07/11 18:43:58;;;;;;;4.00;0.93;;;16.50;1.00;;;;;;10344751;28;20196;-78
2022/07/11 18:49:17;;;;;;;0.88;0.85;;;16.40;1.00;;;;;;10350535;28;20275;-79
2022/07/11 18:54:39;;;;;;;1.55;0.90;;;16.30;1.00;;;;;;10331421;28;20189;-78
2022/07/11 19:00:07;;;;;;;0.90;0.90;;;16.30;1.00;;;;;;10384707;28;20591;-79
2022/07/11 19:05:33;;;;;;;1.42;1.08;;;16.30;1.00;;;;;;10356334;28;20225;-78
2022/07/11 19:10:55;;;;;;;1.63;1.13;;;16.20;1.00;;;;;;10303633;28;20193;-79
2022/07/11 19:16:17;;;;;;;1.88;1.20;;;16.30;1.00;;;;;;10332684;28;20419;-80
2022/07/11 19:21:39;;;;;;;2.30;1.23;;;16.20;1.00;;;;;;10333562;28;20197;-79
2022/07/11 19:27:01;;;;;;;1.20;1.10;;;16.10;1.00;;;;;;10323102;28;20233;-79
2022/07/11 19:32:23;;;;;;;1.05;0.80;;;16.10;1.00;;;;;;10329449;28;20226;-79
2022/07/11 19:37:44;;;;;;;1.92;1.00;;;16.00;1.00;;;;;;10357087;28;20555;-78
2022/07/11 19:43:06;;;;;;;1.40;1.30;;;15.90;1.00;;;;;;10355674;28;20354;-80
2022/07/11 19:48:28;;;;;;;1.35;1.20;;;15.90;1.00;;;;;;10356518;28;20195;-79
2022/07/11 19:53:49;;;;;;;2.05;1.25;;;15.80;1.00;;;;;;10325783;28;20424;-80
2022/07/11 19:59:11;;;;;;;3.97;1.30;;;15.70;1.00;;;;;;10396985;28;20226;-80
2022/07/11 20:04:32;;;;;;;1.65;1.20;;;15.70;11.10;;;;;;10372024;28;20242;-79
2022/07/11 20:09:55;;;;;;;1.25;1.10;;;15.60;14.20;;;;;;10329946;28;20526;-79
2022/07/11 20:15:17;;;;;;;1.98;1.10;;;15.60;10.80;;;;;;10327564;28;20296;-79
2022/07/11 20:20:39;;;;;;;2.47;1.60;;;15.60;36.20;;;;;;10317500;28;20224;-79
2022/07/11 20:26:00;;;;;;;3.13;1.75;;;15.50;22.10;;;;;;10315076;28;20232;-78
2022/07/11 20:31:22;;;;;;;2.97;1.52;;;15.50;45.80;;;;;;10361302;28;20540;-78
2022/07/11 20:36:43;;;;;;;2.42;1.50;;;15.40;56.70;;;;;;10350418;28;20244;-79
2022/07/11 20:42:05;;;;;;;1.83;1.30;;;;;;;;;;10314702;28;20275;-79
2022/07/11 20:47:27;;;;;;;5.25;1.85;;;15.30;64.30;;;;;;10314970;28;20275;-79
2022/07/11 20:52:48;;;;;;;3.35;1.48;;;15.30;90.40;;;;;;10356067;28;20203;-79
2022/07/11 20:58:11;;;;;;;2.03;1.00;;;15.30;90.80;;;;;;10389739;28;20304;-79
2022/07/11 21:03:32;;;;;;;1.58;1.10;;;15.20;78.20;;;;;;10367802;28;20270;-79
2022/07/11 21:08:54;;;;;;;1.50;1.00;;;15.10;99.90;;;;;;10339036;28;20216;-79
2022/07/11 21:14:15;;;;;;;3.30;0.95;;;15.10;91.90;;;;;;10347537;28;20199;-79
2022/07/11 21:19:37;;;;;;;1.15;0.90;;;15.00;96.80;;;;;;10321760;28;20256;-79
2022/07/11 21:24:58;;;;;;;1.45;1.00;;;14.90;99.90;;;;;;10334483;28;20199;-79
2022/07/11 21:30:20;;;;;;;1.10;1.00;;;14.80;99.90;;;;;;10362427;28;20543;-78
2022/07/11 21:35:41;;;;;;;1.20;1.10;;;14.70;99.90;;;;;;10347214;28;20205;-79
2022/07/11 21:41:02;;;;;;;0.93;0.82;;;14.70;99.90;;;;;;10345733;28;20217;-79
2022/07/11 21:46:24;;;;;;;1.00;0.90;;;14.70;99.90;;;;;;10360831;28;20222;-79
2022/07/11 21:51:47;;;;;;;1.75;0.90;;;14.60;99.90;;;;;;10321217;28;20366;-79
2022/07/11 21:57:08;;;;;;;3.92;0.90;;;14.60;99.90;;;;;;10368856;28;20219;-79
2022/07/11 22:02:30;;;;;;;1.20;1.00;;;14.60;99.90;;;;;;10360293;28;20215;-79
2022/07/11 22:07:52;;;;;;;1.15;0.82;;;14.50;99.90;;;;;;10363321;28;20242;-78
2022/07/11 22:13:14;;;;;;;1.08;0.90;;;14.50;99.90;;;;;;10332478;28;20250;-78
2022/07/11 22:18:36;;;;;;;1.10;1.00;;;14.60;99.90;;;;;;10361006;28;20227;-78
2022/07/11 22:23:58;;;;;;;1.10;0.90;;;14.40;99.90;;;;;;10357432;28;20206;-79
2022/07/11 22:29:19;;;;;;;1.15;0.95;;;14.40;99.90;;;;;;10348145;28;20237;-78
2022/07/11 22:34:41;;;;;;;1.38;1.00;;;14.40;99.90;;;;;;10334579;28;20209;-78
2022/07/11 22:40:03;;;;;;;1.15;1.05;;;14.30;99.90;;;;;;10358607;28;20301;-78
2022/07/11 22:45:25;;;;;;;1.10;0.90;;;14.30;99.90;;;;;;10355357;28;20195;-78
2022/07/11 22:51:06;;;;;;;1.60;0.90;;;14.30;99.90;;;;;;10318745;28;20197;-79
2022/07/11 22:56:28;;;;;;;1.35;1.10;;;14.30;99.90;;;;;;10337567;28;20576;-78
2022/07/11 23:01:49;;;;;;;1.00;1.00;;;14.30;99.90;;;;;;10331239;28;20275;-78
2022/07/11 23:07:10;;;;;;;2.15;1.30;;;14.20;99.90;;;;;;10333288;28;20203;-80
2022/07/11 23:12:33;;;;;;;1.27;1.10;;;14.20;99.90;;;;;;10357944;28;20212;-80
2022/07/11 23:17:54;;;;;;;1.88;1.45;;;14.20;99.90;;;;;;10334928;28;20228;-78
2022/07/11 23:23:16;;;;;;;2.38;1.60;;;14.10;99.90;;;;;;10316578;28;20192;-78
2022/07/11 23:28:38;;;;;;;1.60;1.50;;;;;;;;;;10343390;28;20239;-80
2022/07/11 23:34:00;;;;;;;3.38;1.75;;;13.80;99.90;;;;;;10355825;28;20206;-78
2022/07/11 23:39:21;;;;;;;2.50;1.60;;;14.00;99.90;;;;;;10337886;28;20303;-78
2022/07/11 23:44:42;;;;;;;3.13;1.80;;;14.00;99.90;;;;;;10315809;28;20209;-78
2022/07/11 23:50:05;;;;;;;2.90;1.85;;;13.90;99.90;;;;;;10350629;28;20373;-78
2022/07/11 23:55:26;;;;;;;3.20;1.55;;;14.00;99.90;;;;;;10341171;28;20492;-78
